Carolina Forest, South Carolina
Current Conditions -  °F | °C
As of 2:45 PM on Wednesday 26 Nov 2014 (Local Time) from KMYR Reporting Station
Overcast Overcast  
Wind Chill: 54°   Ceiling: 1400
Heat Index: 54°   Visibility: 10mi
Dew Point: 46°   Wind: 12mph
Humidity: 77%   Direction: 310°NW
Pressure: 29.97"   Gusts: NA
Location:  33.7109°N, 78.9964°W
Report Text: KMYR 261945Z 31010KT 10SM BKN014 OVC021 12/08 A2997
Loading
Personal Weather Stations






























Interactive Weather Map New forecast layout! Learn more

10-Day Weather Forecast

Advertisements
Track Severe Weather on mobile